createdAt,value
2023-04-03T00:00:14.258Z,98758.11
2023-04-03T00:02:47.705Z,98756.39
2023-04-03T00:05:21.434Z,98762.50
2023-04-03T00:07:55.094Z,98757.28
2023-04-03T00:10:28.327Z,98764.24
2023-04-03T00:13:04.226Z,98759.89
2023-04-03T00:15:38.833Z,98756.42
2023-04-03T00:18:12.463Z,98761.64
2023-04-03T00:20:46.481Z,98763.39
2023-04-03T00:23:19.841Z,98765.14
2023-04-03T00:25:54.671Z,98762.53
2023-04-03T00:28:28.031Z,98763.42
2023-04-03T00:31:01.375Z,98758.20
2023-04-03T00:33:35.026Z,98765.17
2023-04-03T00:36:15.704Z,98761.67
2023-04-03T00:38:49.102Z,98762.56
2023-04-03T00:41:22.452Z,98763.42
2023-04-03T00:43:56.495Z,98761.67
2023-04-03T00:46:30.534Z,98759.06
2023-04-03T00:49:04.122Z,98763.42
2023-04-03T00:51:37.988Z,98760.84
2023-04-03T00:54:12.187Z,98763.45
2023-04-03T00:56:45.753Z,98750.42
2023-04-03T00:59:23.271Z,98752.16
2023-04-03T01:02:00.553Z,98757.41
2023-04-03T01:04:37.178Z,98753.91
2023-04-03T01:07:12.950Z,98754.80
2023-04-03T01:09:47.414Z,98753.05
2023-04-03T01:12:22.761Z,98751.33
2023-04-03T01:14:57.865Z,98755.68
2023-04-03T01:17:34.501Z,98753.09
2023-04-03T01:20:28.972Z,98750.48
2023-04-03T01:23:07.619Z,98757.45
2023-04-03T01:25:43.723Z,98757.42
2023-04-03T01:28:19.700Z,98760.00
2023-04-03T01:30:56.821Z,98759.98
2023-04-03T01:33:30.812Z,98769.49
2023-04-03T01:36:04.559Z,98763.31
2023-04-03T01:38:38.679Z,98764.13
2023-04-03T01:41:12.425Z,98759.73
2023-04-03T01:43:46.630Z,98761.42
2023-04-03T01:46:20.883Z,98763.99
2023-04-03T01:48:54.422Z,98759.67
2023-04-03T01:51:27.644Z,98762.20
2023-04-03T01:54:00.978Z,98764.80
2023-04-03T01:56:34.160Z,98761.30
2023-04-03T01:59:07.412Z,98760.41
2023-04-03T02:01:41.180Z,98759.54
2023-04-03T02:04:15.202Z,98756.03
2023-04-03T02:06:48.457Z,98762.95
2023-04-03T02:09:22.074Z,98768.14
2023-04-03T02:11:56.027Z,98777.66
2023-04-03T02:14:29.967Z,98774.16
2023-04-03T02:17:07.487Z,98770.73
2023-04-03T02:19:41.187Z,98769.85
2023-04-03T02:22:14.368Z,98775.10
2023-04-03T02:24:48.068Z,98771.61
2023-04-03T02:27:22.441Z,98770.75
2023-04-03T02:29:56.537Z,98767.30
2023-04-03T02:32:29.860Z,98768.16
2023-04-03T02:35:03.695Z,98769.05
2023-04-03T02:37:37.473Z,98767.30
2023-04-03T02:40:13.397Z,98768.21
2023-04-03T02:42:47.056Z,98764.81
2023-04-03T02:45:20.324Z,98766.63
2023-04-03T02:47:54.040Z,98764.04
2023-04-03T02:50:29.599Z,98762.33
2023-04-03T02:53:03.575Z,98768.44
2023-04-03T02:55:37.329Z,98775.39
2023-04-03T02:58:10.816Z,98766.69
2023-04-03T03:00:45.340Z,98770.15
2023-04-03T03:03:19.137Z,98778.86
2023-04-03T03:05:52.334Z,98771.05
2023-04-03T03:08:25.690Z,98769.33
2023-04-03T03:10:58.796Z,98772.80
2023-04-03T03:13:32.938Z,98774.55
2023-04-03T03:16:07.157Z,98772.80
2023-04-03T03:18:40.900Z,98771.94
2023-04-03T03:21:14.197Z,98778.01
2023-04-03T03:23:47.768Z,98784.97
2023-04-03T03:26:21.321Z,98781.51
2023-04-03T03:28:54.414Z,98780.65
2023-04-03T03:31:28.279Z,98775.44
2023-04-03T03:34:01.689Z,98781.51
2023-04-03T03:36:35.748Z,98777.19
2023-04-03T03:39:09.795Z,98782.41
2023-04-03T03:41:43.076Z,98791.08
2023-04-03T03:44:16.679Z,98783.27
2023-04-03T03:46:50.306Z,98792.83
2023-04-03T03:49:23.468Z,98791.08
2023-04-03T03:51:56.763Z,98792.73
2023-04-03T03:54:30.499Z,98779.58
2023-04-03T03:57:04.040Z,98793.33
2023-04-03T03:59:37.746Z,98783.70
2023-04-03T04:02:11.784Z,98788.00
2023-04-03T04:04:45.259Z,98785.39
2023-04-03T04:07:19.208Z,98787.09
2023-04-03T04:09:52.997Z,98789.70
2023-04-03T04:12:26.639Z,98781.89
2023-04-03T04:15:00.465Z,98784.50
2023-04-03T04:17:36.277Z,98786.31
2023-04-03T04:20:13.990Z,98790.73
2023-04-03T04:22:47.566Z,98783.84
2023-04-03T04:25:21.517Z,98785.63
2023-04-03T04:27:55.740Z,98785.72
2023-04-03T04:30:29.346Z,98781.37
2023-04-03T04:33:03.302Z,98786.63
2023-04-03T04:35:37.060Z,98790.17
2023-04-03T04:38:10.792Z,98794.58
2023-04-03T04:40:44.385Z,98790.30
2023-04-03T04:43:18.554Z,98798.16
2023-04-03T04:46:03.154Z,98794.73
2023-04-03T04:48:38.347Z,98798.26
2023-04-03T04:51:14.070Z,98804.39
2023-04-03T04:53:48.337Z,98799.20
2023-04-03T04:56:22.950Z,98806.18
2023-04-03T04:58:56.805Z,98808.78
2023-04-03T05:01:30.884Z,98803.55
2023-04-03T05:04:06.182Z,98807.88
2023-04-03T05:06:41.174Z,98809.58
2023-04-03T05:09:24.717Z,98813.87
2023-04-03T05:11:58.347Z,98811.23
2023-04-03T05:14:33.454Z,98811.22
2023-04-03T05:17:08.412Z,98812.08
2023-04-03T05:19:43.358Z,98800.83
2023-04-03T05:22:17.369Z,98805.22
2023-04-03T05:24:50.698Z,98803.52
2023-04-03T05:27:25.019Z,98801.82
2023-04-03T05:30:00.847Z,98805.31
2023-04-03T05:32:35.564Z,98801.86
2023-04-03T05:35:20.495Z,98804.48
2023-04-03T05:38:00.395Z,98808.88
2023-04-03T05:40:34.021Z,98806.22
2023-04-03T05:43:07.560Z,98798.30
2023-04-03T05:45:42.942Z,98805.23
2023-04-03T05:48:17.641Z,98813.83
2023-04-03T05:50:51.708Z,98811.87
2023-04-03T05:53:29.681Z,98805.61
2023-04-03T05:56:04.714Z,98812.44
2023-04-03T05:58:39.474Z,98804.45
2023-04-03T06:01:12.809Z,98806.13
2023-04-03T06:03:46.601Z,98813.22
2023-04-03T06:06:20.021Z,98818.47
2023-04-03T06:08:54.177Z,98818.63
2023-04-03T06:11:27.901Z,98831.91
2023-04-03T06:14:01.761Z,98828.41
2023-04-03T06:16:35.784Z,98825.72
2023-04-03T06:19:10.261Z,98825.58
2023-04-03T06:21:45.082Z,98823.69
2023-04-03T06:24:19.857Z,98829.73
2023-04-03T06:26:53.421Z,98826.19
2023-04-03T06:29:27.029Z,98828.77
2023-04-03T06:32:00.681Z,98835.80
2023-04-03T06:34:35.346Z,98833.28
2023-04-03T06:37:08.393Z,98839.39
2023-04-03T06:39:41.588Z,98840.23
2023-04-03T06:42:15.136Z,98837.72
2023-04-03T06:44:49.945Z,98846.64
2023-04-03T06:47:23.037Z,98844.95
2023-04-03T06:49:57.488Z,98851.16
2023-04-03T06:52:30.924Z,98853.80
2023-04-03T06:55:03.934Z,98850.30
2023-04-03T06:57:37.333Z,98851.18
2023-04-03T07:00:13.185Z,98845.91
2023-04-03T07:02:46.622Z,98851.13
2023-04-03T07:05:20.034Z,98848.41
2023-04-03T07:07:53.194Z,98849.19
2023-04-03T07:10:26.163Z,98836.73
2023-04-03T07:13:01.498Z,98846.05
2023-04-03T07:15:34.735Z,98852.84
2023-04-03T07:18:07.845Z,98850.07
2023-04-03T07:20:42.530Z,98848.89
2023-04-03T07:23:15.794Z,98845.83
2023-04-03T07:25:50.805Z,98847.10
2023-04-03T07:28:25.412Z,98842.28
2023-04-03T07:31:03.372Z,98842.70
2023-04-03T07:33:37.176Z,98842.36
2023-04-03T07:36:12.014Z,98851.03
2023-04-03T07:38:46.002Z,98852.42
2023-04-03T07:41:21.863Z,98861.06
2023-04-03T07:43:55.958Z,98859.35
2023-04-03T07:46:29.250Z,98853.27
2023-04-03T07:49:02.277Z,98855.94
2023-04-03T07:51:35.904Z,98857.54
2023-04-03T07:54:09.201Z,98858.24
2023-04-03T07:56:43.781Z,98857.98
2023-04-03T07:59:16.792Z,98859.48
2023-04-03T08:01:50.170Z,98854.66
2023-04-03T08:04:23.470Z,98859.97
2023-04-03T08:06:56.528Z,98859.91
2023-04-03T08:09:29.569Z,98855.41
2023-04-03T08:12:02.973Z,98858.58
2023-04-03T08:14:36.360Z,98869.88
2023-04-03T08:17:10.902Z,98859.95
2023-04-03T08:19:44.088Z,98864.22
2023-04-03T08:22:17.478Z,98859.52
2023-04-03T08:24:58.418Z,98857.31
2023-04-03T08:27:25.741Z,98862.12
2023-04-03T08:29:58.823Z,98856.58
2023-04-03T08:32:31.805Z,98851.41
2023-04-03T08:35:04.997Z,98863.61
2023-04-03T08:37:40.268Z,98861.69
2023-04-03T08:40:18.094Z,98854.55
2023-04-03T08:42:57.150Z,98858.70
2023-04-03T08:45:34.805Z,98859.75
2023-04-03T08:48:08.406Z,98857.51
2023-04-03T08:50:44.285Z,98865.19
2023-04-03T08:53:20.254Z,98861.72
2023-04-03T08:55:55.383Z,98863.66
2023-04-03T08:58:30.929Z,98861.81
2023-04-03T09:01:06.796Z,98873.41
2023-04-03T09:03:43.119Z,98880.66
2023-04-03T09:06:19.328Z,98879.60
2023-04-03T09:08:55.855Z,98880.27
2023-04-03T09:11:32.185Z,98888.59
2023-04-03T09:14:07.863Z,98891.27
2023-04-03T09:16:43.996Z,98888.42
2023-04-03T09:19:21.908Z,98890.23
2023-04-03T09:21:53.711Z,98894.81
2023-04-03T09:24:27.762Z,98886.50
2023-04-03T09:27:04.037Z,98896.67
2023-04-03T09:29:40.334Z,98896.37
2023-04-03T09:32:23.453Z,98893.59
2023-04-03T09:34:59.736Z,98898.11
2023-04-03T09:37:45.376Z,98904.80
2023-04-03T09:40:40.914Z,98898.42
2023-04-03T09:43:28.560Z,98896.20
2023-04-03T09:46:02.116Z,98904.45
2023-04-03T09:48:35.102Z,98900.81
2023-04-03T09:51:09.810Z,98901.86
2023-04-03T09:53:45.484Z,98903.03
2023-04-03T09:56:28.063Z,98901.41
2023-04-03T09:59:18.027Z,98898.60
2023-04-03T10:02:02.634Z,98895.13
2023-04-03T10:04:43.357Z,98892.14
2023-04-03T10:07:34.640Z,98885.56
2023-04-03T10:10:21.192Z,98890.54
2023-04-03T10:13:08.210Z,98884.73
2023-04-03T10:15:47.564Z,98884.88
2023-04-03T10:18:32.587Z,98893.73
2023-04-03T10:21:17.552Z,98879.50
2023-04-03T10:23:48.529Z,98878.20
2023-04-03T10:26:25.726Z,98876.13
2023-04-03T10:29:01.781Z,98890.77
2023-04-03T10:31:38.353Z,98899.03
2023-04-03T10:34:15.070Z,98898.38
2023-04-03T10:36:51.319Z,98896.33
2023-04-03T10:39:28.336Z,98903.82
2023-04-03T10:42:16.726Z,98903.47
2023-04-03T10:44:45.874Z,98905.10
2023-04-03T10:47:22.203Z,98907.23
2023-04-03T10:50:00.365Z,98908.92
2023-04-03T10:52:39.918Z,98912.07
2023-04-03T10:55:18.749Z,98911.86
2023-04-03T10:57:53.454Z,98919.89
2023-04-03T11:00:30.131Z,98921.83
2023-04-03T11:03:07.024Z,98914.50
2023-04-03T11:05:45.185Z,98913.04
2023-04-03T11:08:24.667Z,98920.91
2023-04-03T11:11:02.146Z,98912.91
2023-04-03T11:13:38.583Z,98904.38
2023-04-03T11:16:13.619Z,98908.05
2023-04-03T11:18:49.679Z,98901.30
2023-04-03T11:21:25.720Z,98896.59
2023-04-03T11:24:01.591Z,98898.25
2023-04-03T11:26:37.829Z,98890.81
2023-04-03T11:29:18.118Z,98898.64
2023-04-03T11:32:00.745Z,98898.13
2023-04-03T11:34:40.157Z,98901.00
2023-04-03T11:37:19.954Z,98889.83
2023-04-03T11:39:57.830Z,98893.50
2023-04-03T11:42:36.261Z,98896.14
2023-04-03T11:45:38.432Z,98893.17
2023-04-03T11:48:34.320Z,98898.83
2023-04-03T11:51:28.936Z,98898.54
2023-04-03T11:54:38.632Z,98895.48
2023-04-03T11:57:46.318Z,98903.72
2023-04-03T12:00:53.789Z,98905.55
2023-04-03T12:04:14.810Z,98903.19
2023-04-03T12:06:58.632Z,98904.02
2023-04-03T12:12:44.053Z,98902.20
2023-04-03T12:15:27.488Z,98902.47
2023-04-03T12:18:00.786Z,98907.74
2023-04-03T12:20:58.745Z,98910.34
2023-04-03T12:23:34.771Z,98915.75
2023-04-03T12:26:30.067Z,98913.12
2023-04-03T12:29:04.069Z,98906.70
2023-04-03T12:31:41.523Z,98903.67
2023-04-03T12:34:23.008Z,98905.12
2023-04-03T12:37:03.071Z,98906.02
2023-04-03T12:39:48.749Z,98903.91
2023-04-03T12:42:47.166Z,98908.15
2023-04-03T12:45:23.222Z,98914.86
2023-04-03T12:47:57.956Z,98913.45
2023-04-03T12:50:34.991Z,98911.92
2023-04-03T12:53:10.196Z,98910.18
2023-04-03T12:55:43.477Z,98910.18
2023-04-03T12:58:23.894Z,98916.27
2023-04-03T13:01:08.458Z,98920.73
2023-04-03T13:03:44.604Z,98912.96
2023-04-03T13:06:21.450Z,98915.56
2023-04-03T13:08:58.079Z,98913.02
2023-04-03T13:11:34.747Z,98912.96
2023-04-03T13:14:16.881Z,98924.51
2023-04-03T13:16:59.383Z,98917.69
2023-04-03T13:19:32.670Z,98922.86
2023-04-03T13:22:08.644Z,98920.31
2023-04-03T13:24:42.958Z,98926.48
2023-04-03T13:27:16.963Z,98928.28
2023-04-03T13:29:54.238Z,98929.11
2023-04-03T13:32:30.037Z,98922.95
2023-04-03T13:35:15.542Z,98923.74
2023-04-03T13:37:40.783Z,98921.91
2023-04-03T13:40:16.398Z,98922.80
2023-04-03T13:42:51.223Z,98926.54
2023-04-03T13:45:27.844Z,98923.98
2023-04-03T13:48:24.070Z,98921.36
2023-04-03T13:50:59.157Z,98931.93
2023-04-03T13:53:34.868Z,98931.02
2023-04-03T13:56:16.595Z,98926.70
2023-04-03T13:59:03.591Z,98936.55
2023-04-03T14:01:45.715Z,98928.07
2023-04-03T14:04:22.885Z,98935.23
2023-04-03T14:06:56.057Z,98933.59
2023-04-03T14:09:32.549Z,98926.63
2023-04-03T14:12:13.082Z,98930.12
2023-04-03T14:14:46.763Z,98930.05
2023-04-03T14:17:24.768Z,98926.53
2023-04-03T14:20:00.267Z,98929.15
2023-04-03T14:22:35.899Z,98926.55
2023-04-03T14:25:10.804Z,98944.80
2023-04-03T14:27:47.234Z,98942.96
2023-04-03T14:30:23.664Z,98936.73
2023-04-03T14:32:57.440Z,98941.07
2023-04-03T14:35:31.807Z,98944.60
2023-04-03T14:38:04.887Z,98946.45
2023-04-03T14:40:38.199Z,98942.91
2023-04-03T14:43:15.177Z,98949.91
2023-04-03T14:45:49.082Z,98949.95
2023-04-03T14:48:25.764Z,98956.18
2023-04-03T14:51:05.723Z,98946.65
2023-04-03T14:56:15.461Z,98954.66
2023-04-03T14:58:51.247Z,98952.91
2023-04-03T15:01:24.888Z,98952.95
2023-04-03T15:03:58.439Z,98953.00
2023-04-03T15:06:34.523Z,98959.23
2023-04-03T15:09:08.214Z,98957.53
2023-04-03T15:11:41.457Z,98957.62
2023-04-03T15:14:19.613Z,98961.19
2023-04-03T15:16:50.555Z,98957.84
2023-04-03T15:24:35.502Z,98958.89
2023-04-03T15:27:08.817Z,98962.42
2023-04-03T15:29:43.760Z,98956.39
2023-04-03T15:32:17.081Z,98957.33
2023-04-03T15:34:50.955Z,98964.30
2023-04-03T15:37:26.273Z,98951.20
2023-04-03T15:39:59.187Z,98966.94
2023-04-03T15:42:33.843Z,98958.23
2023-04-03T15:45:08.408Z,98966.09
2023-04-03T15:47:42.102Z,98968.72
2023-04-03T15:50:15.366Z,98965.25
2023-04-03T15:52:48.981Z,98967.87
2023-04-03T15:55:22.086Z,98973.15
2023-04-03T15:57:55.606Z,98967.94
2023-04-03T16:00:29.567Z,98965.33
2023-04-03T16:03:07.749Z,98973.23
2023-04-03T16:05:42.098Z,98971.50
2023-04-03T16:08:16.297Z,98975.88
2023-04-03T16:10:49.645Z,98975.05
2023-04-03T16:13:22.957Z,98975.08
2023-04-03T16:15:57.189Z,98979.44
2023-04-03T16:18:31.052Z,98972.45
2023-04-03T16:21:04.674Z,98979.43
2023-04-03T16:23:38.058Z,98980.31
2023-04-03T16:26:11.154Z,98980.34
2023-04-03T16:28:47.137Z,98975.98
2023-04-03T16:31:20.402Z,98981.24
2023-04-03T16:33:54.115Z,98986.50
2023-04-03T16:36:27.809Z,98991.76
2023-04-03T16:39:00.833Z,98993.50
2023-04-03T16:41:33.906Z,99002.20
2023-04-03T16:44:08.644Z,98996.97
2023-04-03T16:46:41.883Z,98995.23
2023-04-03T16:49:15.016Z,98997.84
2023-04-03T16:51:48.382Z,99001.33
2023-04-03T16:54:21.677Z,99013.53
2023-04-03T16:56:54.929Z,99003.94
2023-04-03T16:59:29.368Z,99010.94
2023-04-03T17:02:02.505Z,99010.05
2023-04-03T17:04:36.919Z,99018.78
2023-04-03T17:07:09.886Z,99025.75
2023-04-03T17:09:43.040Z,99021.38
2023-04-03T17:12:16.035Z,99035.33
2023-04-03T17:14:50.054Z,99031.83
2023-04-03T17:17:26.268Z,99037.06
2023-04-03T17:19:59.607Z,99037.04
2023-04-03T17:22:33.958Z,99025.70
2023-04-03T17:25:08.936Z,99037.00
2023-04-03T17:27:43.845Z,99043.95
2023-04-03T17:30:17.732Z,99037.81
2023-04-03T17:32:50.970Z,99043.88
2023-04-03T17:35:24.083Z,99035.18
2023-04-03T17:38:16.443Z,99040.41
2023-04-03T17:40:49.966Z,99031.65
2023-04-03T17:43:23.015Z,99040.34
2023-04-03T17:45:57.771Z,99039.41
2023-04-03T17:48:31.536Z,99042.02
2023-04-03T17:51:08.356Z,99040.30
2023-04-03T17:53:41.458Z,99035.08
2023-04-03T17:56:16.538Z,99038.55
2023-04-03T17:58:50.540Z,99034.19
2023-04-03T18:01:25.406Z,99037.70
2023-04-03T18:04:01.177Z,99037.73
2023-04-03T18:06:36.665Z,99037.73
2023-04-03T18:09:14.699Z,99035.98
2023-04-03T18:11:48.786Z,99032.51
2023-04-03T18:14:23.955Z,99025.53
2023-04-03T18:16:58.004Z,99031.62
2023-04-03T18:19:31.306Z,99024.64
2023-04-03T18:22:07.248Z,99028.97
2023-04-03T18:24:41.021Z,99025.50
2023-04-03T18:27:17.254Z,99026.36
2023-04-03T18:29:54.110Z,99022.89
2023-04-03T18:32:27.699Z,99021.14
2023-04-03T18:35:02.349Z,99021.14
2023-04-03T18:37:35.514Z,99020.28
2023-04-03T18:40:11.144Z,99017.64
2023-04-03T18:42:45.208Z,99017.64
2023-04-03T18:45:21.102Z,99012.42
2023-04-03T18:47:56.285Z,99022.03
2023-04-03T18:50:30.334Z,99019.42
2023-04-03T18:53:03.448Z,99022.89
2023-04-03T18:55:41.985Z,99024.64
2023-04-03T18:58:15.289Z,98986.28
2023-04-03T19:00:48.735Z,99021.17
2023-04-03T19:03:22.012Z,99029.86
2023-04-03T19:05:56.195Z,99027.22
2023-04-03T19:08:32.136Z,99022.00
2023-04-03T19:11:07.267Z,99022.00
2023-04-03T19:13:46.799Z,99022.86
2023-04-03T19:16:19.213Z,99021.14
2023-04-03T19:18:52.471Z,99019.35
2023-04-03T19:21:25.975Z,99016.73
2023-04-03T19:23:59.851Z,99021.06
2023-04-03T19:26:34.238Z,99014.95
2023-04-03T19:29:07.617Z,99012.30
2023-04-03T19:31:41.546Z,99006.22
2023-04-03T19:34:15.119Z,99002.72
2023-04-03T19:36:49.521Z,99006.18
2023-04-03T19:39:22.947Z,99008.80
2023-04-03T19:41:56.471Z,99003.61
2023-04-03T19:44:31.824Z,99006.22
2023-04-03T19:47:06.188Z,99003.62
2023-04-03T19:49:39.544Z,99006.23
2023-04-03T19:52:13.164Z,99003.61
2023-04-03T19:54:46.504Z,99000.97
2023-04-03T19:57:19.980Z,99014.02
2023-04-03T19:59:53.162Z,99014.00
2023-04-03T20:02:27.859Z,99020.94
2023-04-03T20:05:01.072Z,99016.56
2023-04-03T20:07:34.679Z,99015.67
2023-04-03T20:10:09.326Z,99003.48
2023-04-03T20:12:42.885Z,99013.91
2023-04-03T20:15:16.763Z,99008.65
2023-04-03T20:17:50.536Z,99005.98
2023-04-03T20:20:23.827Z,99003.33
2023-04-03T20:22:58.808Z,98998.04
2023-04-03T20:28:07.265Z,98996.22
2023-04-03T20:30:42.861Z,98991.84
2023-04-03T20:33:16.224Z,98990.91
2023-04-03T20:35:49.512Z,98991.73
2023-04-03T20:38:22.811Z,98986.52
2023-04-03T20:40:56.108Z,98989.97
2023-04-03T20:43:30.009Z,98989.14
2023-04-03T20:46:04.460Z,98992.66
2023-04-03T20:48:38.030Z,98985.67
2023-04-03T20:51:16.010Z,98983.06
2023-04-03T20:53:49.674Z,98990.89
2023-04-03T20:56:23.616Z,98980.47
2023-04-03T20:58:58.509Z,98979.61
2023-04-03T21:01:33.506Z,98979.56
2023-04-03T21:04:10.637Z,98970.89
2023-04-03T21:07:18.939Z,98971.75
2023-04-03T21:10:28.422Z,98966.54
2023-04-03T21:13:36.397Z,98969.98
2023-04-03T21:16:07.217Z,98965.61
2023-04-03T21:19:08.744Z,98963.86
2023-04-03T21:21:44.324Z,98967.38
2023-04-03T21:24:19.162Z,98959.61
2023-04-03T21:26:52.390Z,98961.32
2023-04-03T21:29:25.692Z,98961.31
2023-04-03T21:32:00.167Z,98961.32
2023-04-03T21:34:33.931Z,98972.59
2023-04-03T21:37:11.970Z,98969.12
2023-04-03T21:39:46.092Z,98970.81
2023-04-03T21:42:19.272Z,98970.81
2023-04-03T21:44:52.793Z,98965.61
2023-04-03T21:47:26.911Z,98964.70
2023-04-03T21:50:00.184Z,98967.30
2023-04-03T21:52:33.731Z,98969.91
2023-04-03T21:55:08.650Z,98963.80
2023-04-03T21:57:42.427Z,98967.23
2023-04-03T22:00:17.502Z,98962.86
2023-04-03T22:02:55.214Z,98965.41
2023-04-03T22:05:26.280Z,98958.42
2023-04-03T22:07:59.814Z,98954.86
2023-04-03T22:10:33.042Z,98952.13
2023-04-03T22:13:06.355Z,98953.87
2023-04-03T22:15:41.755Z,98949.50
2023-04-03T22:18:15.096Z,98959.02
2023-04-03T22:20:48.252Z,98953.86
2023-04-03T22:23:21.406Z,98946.06
2023-04-03T22:26:05.749Z,98947.82
2023-04-03T22:28:41.314Z,98950.41
2023-04-03T22:31:15.016Z,98947.75
2023-04-03T22:33:48.157Z,98947.73
2023-04-03T22:36:21.712Z,98948.57
2023-04-03T22:38:55.092Z,98947.66
2023-04-03T22:41:28.604Z,98938.95
2023-04-03T22:44:02.023Z,98948.52
2023-04-03T22:46:35.470Z,98945.91
2023-04-03T22:49:08.796Z,98939.84
2023-04-03T22:51:42.117Z,98942.44
2023-04-03T22:54:15.623Z,98944.99
2023-04-03T22:56:48.840Z,98940.67
2023-04-03T22:59:22.054Z,98940.61
2023-04-03T23:01:55.687Z,98937.11
2023-04-03T23:04:29.730Z,98936.23
2023-04-03T23:07:03.142Z,98930.97
2023-04-03T23:09:36.594Z,98932.70
2023-04-03T23:12:10.597Z,98927.42
2023-04-03T23:14:43.742Z,98942.11
2023-04-03T23:17:17.197Z,98935.99
2023-04-03T23:19:50.406Z,98938.56
2023-04-03T23:22:23.618Z,98932.44
2023-04-03T23:24:56.784Z,98927.23
2023-04-03T23:27:30.007Z,98922.84
2023-04-03T23:30:03.317Z,98902.72
2023-04-03T23:32:36.686Z,98920.18
2023-04-03T23:35:11.907Z,98923.63
2023-04-03T23:37:45.120Z,98922.75
2023-04-03T23:40:18.995Z,98926.22
2023-04-03T23:42:52.367Z,98923.63
2023-04-03T23:45:25.824Z,98921.08
2023-04-03T23:47:59.322Z,98918.51
2023-04-03T23:50:32.721Z,98915.93
2023-04-03T23:53:05.828Z,98922.88
2023-04-03T23:55:39.104Z,98927.31
2023-04-03T23:58:12.560Z,98929.09
